Bluffdale, Utah
Current Conditions -  °F | °C
As of 3:53 PM on Monday 24 Nov 2014 (Local Time) from KSLC Reporting Station
Scattered Clouds Scattered Clouds  
Wind Chill: 34°   Ceiling: Unl
Heat Index: 40°   Visibility: 10mi
Dew Point: 22°   Wind: 8mph
Humidity: 49%   Direction: 260°W
Pressure: 30.4"   Gusts: NA
Location:  40.5353°N, 111.962°W
Report Text: KSLC 242253Z 26007KT 10SM SCT060 04/M06 A3040 RMK AO2 SLP299 T00441056
Loading
Personal Weather Stations






























Interactive Weather Map New forecast layout! Learn more

10-Day Weather Forecast

Advertisements
Track Severe Weather on mobile